Time;durP1;ratioP1;P1;durP2;ratioP2;P2;SDS_P1;SDS_P2;PMS_P1;PMS_P2;Temp;Humidity;BMP_temperature;BMP_pressure;BME280_temperature;BME280_humidity;BME280_pressure;Samples;Min_cycle;Max_cycle;Signal;HPM_P1;HPM_P2
2022/11/06 00:00:11;;;;;;;;;3.75;2.75;;;;;;;;5098103;27;62054;-75
2022/11/06 00:02:37;;;;;;;;;3.75;3.75;;;;;;;;5113362;27;61756;-75
2022/11/06 00:07:47;;;;;;;;;7.50;3.00;;;;;;;;5113146;27;61890;-75
2022/11/06 00:10:15;;;;;;;;;5.00;4.75;;;;;;;;5096393;27;61786;-75
2022/11/06 00:12:41;;;;;;;;;3.75;3.00;;;;;;;;5095351;27;61971;-75
2022/11/06 00:15:06;;;;;;;;;3.00;3.00;;;;;;;;5110205;27;63402;-75
2022/11/06 00:17:32;;;;;;;;;3.50;3.50;;;;;;;;5114909;27;61875;-75
2022/11/06 00:19:57;;;;;;;;;5.75;4.00;;;;;;;;5114380;27;61880;-75
2022/11/06 00:22:22;;;;;;;;;2.00;2.00;;;;;;;;5110112;27;61982;-75
2022/11/06 00:24:48;;;;;;;;;7.75;3.00;;;;;;;;5115101;27;61928;-75
2022/11/06 00:27:14;;;;;;;;;4.00;2.25;;;;;;;;5095967;27;61842;-75
2022/11/06 00:29:39;;;;;;;;;7.00;3.75;;;;;;;;5114203;27;61836;-75
2022/11/06 00:32:05;;;;;;;;;5.00;3.25;;;;;;;;5096766;27;61777;-76
2022/11/06 00:34:30;;;;;;;;;2.00;2.00;;;;;;;;5092914;27;62655;-76
2022/11/06 00:36:56;;;;;;;;;3.00;2.00;;;;;;;;5114653;27;61859;-76
2022/11/06 00:39:22;;;;;;;;;4.25;4.00;;;;;;;;5114194;27;61885;-76
2022/11/06 00:41:47;;;;;;;;;5.75;4.00;;;;;;;;5111256;27;61900;-75
2022/11/06 00:44:13;;;;;;;;;6.75;4.00;;;;;;;;5094162;27;61790;-76
2022/11/06 00:46:38;;;;;;;;;5.75;3.50;;;;;;;;5092110;27;61903;-76
2022/11/06 00:49:04;;;;;;;;;4.50;4.25;;;;;;;;5090711;27;61669;-75
2022/11/06 00:51:30;;;;;;;;;6.00;4.00;;;;;;;;5086693;27;61840;-76
2022/11/06 00:53:57;;;;;;;;;10.25;4.25;;;;;;;;5104496;27;62101;-75
2022/11/06 00:56:23;;;;;;;;;3.50;2.75;;;;;;;;5105210;27;61807;-75
2022/11/06 00:58:48;;;;;;;;;9.75;2.75;;;;;;;;5104838;27;61755;-75
2022/11/06 01:01:17;;;;;;;;;3.00;3.00;;;;;;;;5104391;27;61843;-75
2022/11/06 01:03:43;;;;;;;;;3.00;2.00;;;;;;;;5084621;27;63799;-76
2022/11/06 01:06:10;;;;;;;;;2.25;2.25;;;;;;;;5067691;27;61919;-75
2022/11/06 01:08:35;;;;;;;;;5.00;4.00;;;;;;;;5087030;27;61789;-75
2022/11/06 01:11:11;;;;;;;;;3.00;3.00;;;;;;;;5084760;27;61797;-75
2022/11/06 01:13:37;;;;;;;;;3.00;3.00;;;;;;;;5083802;28;61820;-75
2022/11/06 01:16:07;;;;;;;;;2.00;2.00;;;;;;;;5094818;27;62113;-76
2022/11/06 01:18:33;;;;;;;;;4.75;2.00;;;;;;;;5076535;27;62094;-76
2022/11/06 01:20:58;;;;;;;;;7.75;3.00;;;;;;;;5095396;27;62216;-75
2022/11/06 01:23:23;;;;;;;;;6.50;2.00;;;;;;;;5095187;27;63048;-75
2022/11/06 01:25:59;;;;;;;;;4.00;2.75;;;;;;;;5075879;27;61860;-75
2022/11/06 01:28:25;;;;;;;;;3.00;3.00;;;;;;;;5096280;27;61778;-75
2022/11/06 01:30:50;;;;;;;;;4.00;3.00;;;;;;;;5104616;27;61835;-76
2022/11/06 01:33:15;;;;;;;;;5.25;3.00;;;;;;;;5083474;27;61855;-76
2022/11/06 01:35:44;;;;;;;;;10.00;3.25;;;;;;;;5065675;28;61979;-76
2022/11/06 01:38:09;;;;;;;;;4.50;2.25;;;;;;;;5084441;28;62351;-75
2022/11/06 01:40:41;;;;;;;;;5.25;3.75;;;;;;;;5084555;28;61859;-75
2022/11/06 01:43:13;;;;;;;;;4.00;4.00;;;;;;;;5082927;27;62775;-75
2022/11/06 01:45:39;;;;;;;;;2.25;2.00;;;;;;;;5084217;28;61945;-75
2022/11/06 01:48:05;;;;;;;;;7.00;2.75;;;;;;;;5084048;27;61861;-75
2022/11/06 01:50:30;;;;;;;;;4.00;3.00;;;;;;;;5083623;28;61997;-76
2022/11/06 01:52:59;;;;;;;;;2.50;2.00;;;;;;;;5083171;27;61798;-75
2022/11/06 01:55:29;;;;;;;;;2.00;2.00;;;;;;;;5084323;28;61709;-75
2022/11/06 01:57:56;;;;;;;;;4.50;3.00;;;;;;;;5083527;28;61890;-75
2022/11/06 02:00:21;;;;;;;;;2.00;2.00;;;;;;;;5084104;28;61831;-75
2022/11/06 02:02:47;;;;;;;;;2.25;2.00;;;;;;;;5082782;27;61921;-75
2022/11/06 02:05:12;;;;;;;;;3.50;2.25;;;;;;;;5064106;28;62011;-76
2022/11/06 02:07:39;;;;;;;;;3.00;1.25;;;;;;;;5083192;28;62010;-75
2022/11/06 02:10:04;;;;;;;;;3.75;3.00;;;;;;;;5083244;27;61788;-76
2022/11/06 02:12:29;;;;;;;;;4.00;2.50;;;;;;;;5082148;27;61796;-76
2022/11/06 02:15:11;;;;;;;;;3.75;3.50;;;;;;;;5082688;28;61908;-75
2022/11/06 02:17:55;;;;;;;;;3.00;2.50;;;;;;;;5064903;28;61882;-75
2022/11/06 02:20:32;;;;;;;;;3.75;2.50;;;;;;;;5082715;27;61858;-75
2022/11/06 02:23:33;;;;;;;;;3.00;3.00;;;;;;;;5082755;27;61756;-75
2022/11/06 02:26:16;;;;;;;;;2.00;2.00;;;;;;;;5000289;28;62109;-75
2022/11/06 02:28:55;;;;;;;;;3.00;1.75;;;;;;;;5000884;28;61847;-75
2022/11/06 02:31:23;;;;;;;;;5.00;3.25;;;;;;;;5000384;28;62007;-75
2022/11/06 02:33:54;;;;;;;;;4.00;3.00;;;;;;;;4999871;28;62620;-76
2022/11/06 02:36:24;;;;;;;;;6.00;4.00;;;;;;;;4999901;28;62038;-75
2022/11/06 02:38:54;;;;;;;;;2.00;2.00;;;;;;;;5000875;28;61920;-76
2022/11/06 02:41:21;;;;;;;;;3.25;2.25;;;;;;;;5000176;28;61883;-75
2022/11/06 02:43:52;;;;;;;;;1.75;1.00;;;;;;;;4999943;28;62554;-75
2022/11/06 02:46:21;;;;;;;;;9.00;3.75;;;;;;;;4999849;28;61938;-75
2022/11/06 02:48:50;;;;;;;;;3.00;3.00;;;;;;;;5000227;28;61808;-76
2022/11/06 02:51:18;;;;;;;;;3.25;2.50;;;;;;;;4983601;28;62247;-75
2022/11/06 02:53:44;;;;;;;;;2.50;2.00;;;;;;;;5016161;28;62798;-75
2022/11/06 02:56:18;;;;;;;;;2.00;2.00;;;;;;;;4999941;28;62158;-75
2022/11/06 02:58:48;;;;;;;;;3.00;3.00;;;;;;;;4983383;28;61867;-75
2022/11/06 03:01:21;;;;;;;;;2.00;2.00;;;;;;;;5083029;28;61694;-75
2022/11/06 03:03:50;;;;;;;;;6.50;3.00;;;;;;;;5080844;27;61848;-75
2022/11/06 03:06:29;;;;;;;;;1.25;1.25;;;;;;;;5082262;27;61936;-75
2022/11/06 03:09:00;;;;;;;;;6.00;2.00;;;;;;;;5083179;27;61927;-75
2022/11/06 03:11:28;;;;;;;;;4.25;3.25;;;;;;;;5064121;28;62072;-75
2022/11/06 03:13:56;;;;;;;;;7.25;3.75;;;;;;;;5082040;28;61878;-75
2022/11/06 03:16:24;;;;;;;;;2.00;2.00;;;;;;;;5082536;28;61653;-75
2022/11/06 03:18:55;;;;;;;;;4.00;2.00;;;;;;;;5082362;28;61791;-75
2022/11/06 03:21:25;;;;;;;;;2.25;2.00;;;;;;;;5073123;27;62087;-76
2022/11/06 03:23:57;;;;;;;;;5.50;3.75;;;;;;;;5101980;27;61836;-75
2022/11/06 03:26:32;;;;;;;;;2.75;2.75;;;;;;;;5101740;27;62333;-75
2022/11/06 03:29:07;;;;;;;;;3.50;0.00;;;;;;;;5103220;27;61798;-75
2022/11/06 03:31:36;;;;;;;;;2.25;2.00;;;;;;;;5084535;27;61768;-75
2022/11/06 03:34:03;;;;;;;;;4.25;2.00;;;;;;;;5102221;27;63155;-75
2022/11/06 03:36:40;;;;;;;;;5.50;4.00;;;;;;;;5102416;27;61875;-75
2022/11/06 03:39:08;;;;;;;;;3.00;2.75;;;;;;;;5102641;27;61873;-75
2022/11/06 03:41:35;;;;;;;;;3.25;2.50;;;;;;;;5102897;27;61676;-75
2022/11/06 03:44:03;;;;;;;;;1.50;1.25;;;;;;;;5102234;27;61755;-75
2022/11/06 03:46:29;;;;;;;;;2.75;1.00;;;;;;;;5102443;27;61785;-75
2022/11/06 03:48:57;;;;;;;;;5.00;2.50;;;;;;;;5102722;27;61757;-75
2022/11/06 03:51:28;;;;;;;;;4.50;3.00;;;;;;;;5102270;27;61949;-75
2022/11/06 03:53:57;;;;;;;;;2.75;2.00;;;;;;;;5101920;27;62167;-75
2022/11/06 03:56:27;;;;;;;;;3.00;3.00;;;;;;;;5102503;27;61697;-76
2022/11/06 03:58:54;;;;;;;;;3.00;3.00;;;;;;;;5102649;27;61765;-75
2022/11/06 04:01:26;;;;;;;;;3.75;3.00;;;;;;;;5102872;27;61773;-75
2022/11/06 04:04:01;;;;;;;;;3.00;2.00;;;;;;;;5083567;27;64603;-75
2022/11/06 04:06:34;;;;;;;;;4.50;3.50;;;;;;;;5101895;27;62702;-75
2022/11/06 04:14:32;;;;;;;;;3.50;3.50;;;;;;;;5101571;27;61918;-76
2022/11/06 04:17:00;;;;;;;;;1.75;1.50;;;;;;;;5102411;27;61881;-75
2022/11/06 04:19:25;;;;;;;;;2.75;1.50;;;;;;;;5101956;27;61813;-75
2022/11/06 04:22:17;;;;;;;;;3.00;2.00;;;;;;;;5080622;27;61813;-75
2022/11/06 04:27:44;;;;;;;;;2.00;2.00;;;;;;;;5101990;27;61702;-76
2022/11/06 04:30:14;;;;;;;;;4.00;2.50;;;;;;;;5102342;27;61875;-75
2022/11/06 04:32:40;;;;;;;;;1.25;1.25;;;;;;;;5101806;27;62128;-75
2022/11/06 04:35:14;;;;;;;;;5.50;3.50;;;;;;;;5101333;27;61979;-76
2022/11/06 04:37:52;;;;;;;;;3.75;2.00;;;;;;;;5102568;27;61805;-75
2022/11/06 04:40:20;;;;;;;;;8.25;3.00;;;;;;;;5087313;27;62027;-75
2022/11/06 04:42:45;;;;;;;;;6.25;3.00;;;;;;;;5105368;27;61672;-75
2022/11/06 04:45:13;;;;;;;;;8.75;4.00;;;;;;;;5086560;27;63108;-76
2022/11/06 04:47:38;;;;;;;;;3.00;3.00;;;;;;;;5105291;27;61810;-75
2022/11/06 04:50:05;;;;;;;;;3.00;2.25;;;;;;;;5104449;27;61804;-76
2022/11/06 04:52:30;;;;;;;;;5.00;3.00;;;;;;;;5086226;27;61912;-74
2022/11/06 04:54:57;;;;;;;;;5.00;3.00;;;;;;;;5086560;27;63366;-75
2022/11/06 04:57:22;;;;;;;;;7.25;3.75;;;;;;;;5086911;27;61754;-75
2022/11/06 04:59:47;;;;;;;;;7.50;4.25;;;;;;;;5105071;27;61753;-75
2022/11/06 05:02:13;;;;;;;;;7.50;4.50;;;;;;;;5105809;27;61838;-75
2022/11/06 05:04:38;;;;;;;;;5.00;4.00;;;;;;;;5104453;27;61780;-75
2022/11/06 05:07:03;;;;;;;;;2.50;2.00;;;;;;;;5104150;27;61931;-75
2022/11/06 05:09:29;;;;;;;;;4.50;2.25;;;;;;;;5105341;27;61889;-76
2022/11/06 05:11:54;;;;;;;;;4.75;3.75;;;;;;;;5086808;27;61767;-75
2022/11/06 05:14:20;;;;;;;;;4.25;2.75;;;;;;;;5104395;27;61733;-75
2022/11/06 05:16:45;;;;;;;;;3.00;3.00;;;;;;;;5104868;27;61796;-75
2022/11/06 05:19:10;;;;;;;;;2.75;2.75;;;;;;;;5086281;27;61950;-75
2022/11/06 05:24:19;;;;;;;;;3.00;2.50;;;;;;;;5104241;27;62403;-75
2022/11/06 05:26:44;;;;;;;;;4.25;3.00;;;;;;;;5086382;27;61762;-76
2022/11/06 05:29:10;;;;;;;;;3.00;3.00;;;;;;;;5105090;27;61762;-75
2022/11/06 05:31:35;;;;;;;;;5.00;3.00;;;;;;;;5104826;27;61985;-75
2022/11/06 05:34:01;;;;;;;;;3.00;2.00;;;;;;;;5104249;27;61835;-75
2022/11/06 05:36:26;;;;;;;;;3.25;2.50;;;;;;;;5103797;27;61876;-75
2022/11/06 05:38:51;;;;;;;;;3.00;2.00;;;;;;;;5104712;27;62033;-75
2022/11/06 05:41:16;;;;;;;;;3.00;2.25;;;;;;;;5086495;27;61991;-75
2022/11/06 05:43:42;;;;;;;;;3.00;1.00;;;;;;;;5103866;27;61786;-75
2022/11/06 05:46:07;;;;;;;;;4.00;3.00;;;;;;;;5104489;27;61814;-75
2022/11/06 05:48:32;;;;;;;;;3.00;2.00;;;;;;;;5103734;27;61975;-76
2022/11/06 05:51:04;;;;;;;;;7.00;2.00;;;;;;;;5103313;27;62081;-75
2022/11/06 05:53:30;;;;;;;;;5.50;3.00;;;;;;;;5103695;27;62966;-75
2022/11/06 05:55:55;;;;;;;;;3.00;1.00;;;;;;;;5103581;27;61716;-75
2022/11/06 05:58:20;;;;;;;;;2.00;2.00;;;;;;;;5104587;27;61804;-75
2022/11/06 06:00:46;;;;;;;;;2.75;2.75;;;;;;;;5086242;27;62200;-75
2022/11/06 06:03:11;;;;;;;;;7.50;3.00;;;;;;;;5103465;27;61799;-75
2022/11/06 06:05:36;;;;;;;;;2.25;1.75;;;;;;;;5084899;27;62025;-75
2022/11/06 06:08:02;;;;;;;;;4.50;1.50;;;;;;;;5104448;27;61801;-75
2022/11/06 06:10:27;;;;;;;;;5.00;2.00;;;;;;;;5104597;27;61951;-75
2022/11/06 06:12:53;;;;;;;;;4.50;4.00;;;;;;;;5103350;27;62729;-75
2022/11/06 06:15:18;;;;;;;;;4.00;4.00;;;;;;;;5104216;27;61954;-76
2022/11/06 06:17:45;;;;;;;;;3.75;2.00;;;;;;;;5085260;27;62020;-76
2022/11/06 06:20:10;;;;;;;;;4.25;2.00;;;;;;;;5104084;27;61951;-76
2022/11/06 06:22:36;;;;;;;;;3.00;1.75;;;;;;;;5100760;27;61784;-76
2022/11/06 06:25:01;;;;;;;;;1.50;1.50;;;;;;;;5104033;27;61701;-75
2022/11/06 06:27:26;;;;;;;;;3.00;3.00;;;;;;;;5103882;27;61926;-75
2022/11/06 06:29:52;;;;;;;;;3.50;2.00;;;;;;;;5104087;27;61828;-75
2022/11/06 06:32:17;;;;;;;;;1.75;1.75;;;;;;;;5084616;27;61853;-75
2022/11/06 06:34:42;;;;;;;;;4.50;2.50;;;;;;;;5085341;27;61829;-75
2022/11/06 06:37:07;;;;;;;;;2.00;2.00;;;;;;;;5103674;27;61930;-76
2022/11/06 06:39:33;;;;;;;;;7.75;3.00;;;;;;;;5104043;27;62018;-75
2022/11/06 06:41:58;;;;;;;;;2.00;1.00;;;;;;;;5103058;27;61822;-75
2022/11/06 06:44:23;;;;;;;;;4.50;2.00;;;;;;;;5103713;27;61684;-75
2022/11/06 06:46:48;;;;;;;;;3.00;2.50;;;;;;;;5103241;27;61815;-76
2022/11/06 06:49:14;;;;;;;;;2.50;2.00;;;;;;;;5102643;27;61844;-75
2022/11/06 06:51:39;;;;;;;;;6.00;4.75;;;;;;;;5083720;27;61878;-75
2022/11/06 06:54:04;;;;;;;;;3.50;2.50;;;;;;;;5103475;27;62200;-75
2022/11/06 06:56:30;;;;;;;;;7.50;3.25;;;;;;;;5085087;27;61922;-76
2022/11/06 06:58:55;;;;;;;;;4.75;3.25;;;;;;;;5103460;27;62167;-75
2022/11/06 07:01:20;;;;;;;;;3.00;2.50;;;;;;;;5102340;27;61836;-75
2022/11/06 07:03:45;;;;;;;;;3.75;3.25;;;;;;;;5103262;27;61921;-76
2022/11/06 07:06:11;;;;;;;;;2.00;2.00;;;;;;;;5102905;27;61778;-75
2022/11/06 07:08:36;;;;;;;;;3.50;3.50;;;;;;;;5103802;27;61713;-76
2022/11/06 07:11:04;;;;;;;;;5.50;3.00;;;;;;;;5083979;27;63538;-75
2022/11/06 07:13:29;;;;;;;;;4.50;2.75;;;;;;;;5103383;27;62054;-76
2022/11/06 07:15:55;;;;;;;;;1.50;0.00;;;;;;;;5102878;27;62548;-75
2022/11/06 07:18:20;;;;;;;;;4.00;3.00;;;;;;;;5103427;27;62058;-75
2022/11/06 07:20:45;;;;;;;;;8.50;4.00;;;;;;;;5102277;27;62084;-75
2022/11/06 07:23:11;;;;;;;;;4.50;3.00;;;;;;;;5102725;27;62081;-75
2022/11/06 07:25:36;;;;;;;;;3.00;3.00;;;;;;;;5103507;27;61838;-76
2022/11/06 07:28:02;;;;;;;;;3.00;3.00;;;;;;;;5103326;27;61802;-76
2022/11/06 07:30:27;;;;;;;;;5.00;2.00;;;;;;;;5083601;27;62894;-75
2022/11/06 07:32:53;;;;;;;;;3.50;3.50;;;;;;;;5084360;27;62027;-75
2022/11/06 07:35:18;;;;;;;;;3.25;3.00;;;;;;;;5102846;27;62065;-75
2022/11/06 07:37:44;;;;;;;;;6.75;3.00;;;;;;;;5103485;27;61890;-77
2022/11/06 07:40:09;;;;;;;;;4.00;2.00;;;;;;;;5102175;27;62832;-76
2022/11/06 07:42:34;;;;;;;;;1.75;1.75;;;;;;;;5084583;27;61836;-76
2022/11/06 07:44:59;;;;;;;;;4.00;3.00;;;;;;;;5083813;27;61937;-75
2022/11/06 07:47:26;;;;;;;;;2.25;2.25;;;;;;;;5084909;27;61792;-75
2022/11/06 07:49:51;;;;;;;;;3.00;2.00;;;;;;;;5101733;27;61971;-75
2022/11/06 07:52:17;;;;;;;;;2.50;2.50;;;;;;;;5083836;27;61747;-75
2022/11/06 07:54:42;;;;;;;;;3.50;2.25;;;;;;;;5102861;27;61838;-75
2022/11/06 07:57:07;;;;;;;;;4.00;4.00;;;;;;;;5102931;27;61792;-74
2022/11/06 07:59:33;;;;;;;;;3.00;3.00;;;;;;;;5101683;27;62664;-75
2022/11/06 08:01:58;;;;;;;;;4.00;3.00;;;;;;;;5102561;27;61897;-77
2022/11/06 08:04:23;;;;;;;;;4.00;2.75;;;;;;;;5102602;27;61828;-75
2022/11/06 08:06:49;;;;;;;;;4.00;4.00;;;;;;;;5084326;27;62125;-75
2022/11/06 08:09:14;;;;;;;;;3.00;2.00;;;;;;;;5101355;27;61804;-74
2022/11/06 08:11:39;;;;;;;;;5.00;3.25;;;;;;;;5102617;27;61770;-74
2022/11/06 08:14:04;;;;;;;;;4.50;2.75;;;;;;;;5105224;27;61782;-75
2022/11/06 08:16:30;;;;;;;;;4.75;3.00;;;;;;;;5106321;27;61777;-76
2022/11/06 08:18:55;;;;;;;;;4.00;2.50;;;;;;;;5086729;27;61922;-76
2022/11/06 08:21:20;;;;;;;;;3.00;3.00;;;;;;;;5102817;27;61752;-76
2022/11/06 08:23:46;;;;;;;;;2.00;2.00;;;;;;;;5105925;27;61997;-75
2022/11/06 08:26:11;;;;;;;;;2.50;2.25;;;;;;;;5087629;27;61785;-76
2022/11/06 08:28:36;;;;;;;;;7.00;2.75;;;;;;;;5104944;27;61755;-76
2022/11/06 08:31:03;;;;;;;;;5.50;3.00;;;;;;;;5086649;27;61834;-75
2022/11/06 08:33:28;;;;;;;;;2.00;2.00;;;;;;;;5104847;27;62104;-75
2022/11/06 08:35:53;;;;;;;;;2.00;2.00;;;;;;;;5086924;27;61844;-75
2022/11/06 08:38:18;;;;;;;;;3.00;3.00;;;;;;;;5105222;27;61781;-75
2022/11/06 08:40:44;;;;;;;;;2.25;2.25;;;;;;;;5105645;27;61935;-76
2022/11/06 08:43:09;;;;;;;;;2.00;2.00;;;;;;;;5105345;27;62584;-76
2022/11/06 08:45:35;;;;;;;;;3.75;3.00;;;;;;;;5086877;27;62479;-76
2022/11/06 08:48:06;;;;;;;;;3.75;3.25;;;;;;;;5086411;27;61915;-76
2022/11/06 08:50:40;;;;;;;;;2.75;2.00;;;;;;;;5085304;27;62047;-77
2022/11/06 08:53:07;;;;;;;;;1.75;1.75;;;;;;;;5085106;27;61916;-77
2022/11/06 08:55:33;;;;;;;;;6.25;3.75;;;;;;;;5089645;27;61689;-77
2022/11/06 08:57:58;;;;;;;;;6.25;4.25;;;;;;;;5103697;27;62588;-78
2022/11/06 09:00:24;;;;;;;;;3.00;3.00;;;;;;;;5087073;27;61817;-76
2022/11/06 09:02:49;;;;;;;;;1.25;1.25;;;;;;;;5106603;27;61828;-78
2022/11/06 09:05:15;;;;;;;;;3.00;2.00;;;;;;;;5095003;27;62307;-78
2022/11/06 09:07:40;;;;;;;;;2.00;2.00;;;;;;;;5114556;27;62165;-80
2022/11/06 09:10:06;;;;;;;;;2.50;2.50;;;;;;;;5095135;27;62182;-80
2022/11/06 09:12:31;;;;;;;;;7.75;4.00;;;;;;;;5094910;27;61818;-80
2022/11/06 09:15:00;;;;;;;;;2.25;2.00;;;;;;;;5087921;27;61958;-83
2022/11/06 09:17:25;;;;;;;;;3.00;2.00;;;;;;;;5084914;27;62904;-83
2022/11/06 09:19:51;;;;;;;;;4.50;3.00;;;;;;;;5067953;27;62014;-81
2022/11/06 09:22:16;;;;;;;;;3.50;2.75;;;;;;;;5084871;27;62197;-81
2022/11/06 09:24:42;;;;;;;;;3.00;2.00;;;;;;;;5084379;27;61807;-80
2022/11/06 09:27:07;;;;;;;;;2.00;2.00;;;;;;;;5082289;27;63384;-82
2022/11/06 09:29:32;;;;;;;;;3.50;2.00;;;;;;;;5083421;27;62268;-80
2022/11/06 09:31:58;;;;;;;;;3.75;2.00;;;;;;;;5083498;27;62121;-80
2022/11/06 09:34:23;;;;;;;;;2.75;2.75;;;;;;;;5104597;27;61720;-79
2022/11/06 09:36:49;;;;;;;;;3.50;3.50;;;;;;;;5081932;27;62058;-81
2022/11/06 09:39:14;;;;;;;;;4.00;3.00;;;;;;;;5081249;27;62158;-82
2022/11/06 09:41:39;;;;;;;;;3.75;2.25;;;;;;;;5083985;27;61773;-78
2022/11/06 09:44:25;;;;;;;;;5.50;2.50;;;;;;;;5085214;27;61887;-78
2022/11/06 09:46:52;;;;;;;;;3.25;2.00;;;;;;;;5099405;27;62034;-79
2022/11/06 09:49:24;;;;;;;;;5.25;3.75;;;;;;;;5083947;27;61780;-77
2022/11/06 09:52:08;;;;;;;;;5.00;4.00;;;;;;;;5081701;27;61928;-77
2022/11/06 09:54:36;;;;;;;;;7.25;4.00;;;;;;;;5101260;27;61699;-76
2022/11/06 09:57:22;;;;;;;;;4.00;4.00;;;;;;;;5103812;27;62492;-78
2022/11/06 09:59:48;;;;;;;;;7.50;5.25;;;;;;;;5103163;27;62004;-78
2022/11/06 10:02:34;;;;;;;;;6.50;6.50;;;;;;;;5086196;27;61815;-77
2022/11/06 10:05:04;;;;;;;;;5.75;4.75;;;;;;;;5103429;27;61789;-77
2022/11/06 10:07:32;;;;;;;;;5.00;4.00;;;;;;;;5103336;27;63093;-77
2022/11/06 10:09:58;;;;;;;;;6.75;4.25;;;;;;;;5085482;27;61915;-77
2022/11/06 10:12:28;;;;;;;;;10.25;6.25;;;;;;;;5086192;27;61809;-78
2022/11/06 10:14:53;;;;;;;;;5.25;3.75;;;;;;;;5086114;27;61726;-77
2022/11/06 10:17:39;;;;;;;;;3.75;3.75;;;;;;;;5103788;27;61795;-80
2022/11/06 10:20:11;;;;;;;;;5.25;5.00;;;;;;;;4984223;28;61978;-79
2022/11/06 10:22:40;;;;;;;;;5.00;5.00;;;;;;;;4984041;28;62092;-79
2022/11/06 10:25:08;;;;;;;;;9.00;5.25;;;;;;;;5000750;28;61759;-79
2022/11/06 10:27:41;;;;;;;;;9.75;7.00;;;;;;;;4983949;28;63322;-80
2022/11/06 10:30:06;;;;;;;;;4.75;4.50;;;;;;;;5001284;28;61991;-80
2022/11/06 10:32:50;;;;;;;;;9.00;5.50;;;;;;;;5000992;28;62025;-80
2022/11/06 10:35:16;;;;;;;;;11.00;4.75;;;;;;;;4980856;28;62241;-79
2022/11/06 10:37:44;;;;;;;;;8.50;8.50;;;;;;;;4997656;28;63140;-79
2022/11/06 10:40:17;;;;;;;;;10.00;5.00;;;;;;;;4992780;28;62255;-79
2022/11/06 10:42:45;;;;;;;;;10.75;8.75;;;;;;;;5020181;28;61929;-80
2022/11/06 10:45:14;;;;;;;;;5.25;5.25;;;;;;;;5004021;28;61801;-79
2022/11/06 10:47:43;;;;;;;;;4.00;4.00;;;;;;;;5002838;28;64511;-79
2022/11/06 10:50:13;;;;;;;;;4.00;4.00;;;;;;;;5003378;28;61946;-79
2022/11/06 10:52:44;;;;;;;;;4.00;3.50;;;;;;;;5019993;28;62008;-77
2022/11/06 10:55:09;;;;;;;;;4.75;3.25;;;;;;;;5016468;28;61935;-80
2022/11/06 10:57:49;;;;;;;;;6.75;4.25;;;;;;;;5067627;27;61894;-79
2022/11/06 11:00:15;;;;;;;;;5.00;5.00;;;;;;;;5103494;27;61966;-77
2022/11/06 11:02:52;;;;;;;;;6.00;5.00;;;;;;;;5085051;27;61918;-80
2022/11/06 11:05:19;;;;;;;;;8.50;6.00;;;;;;;;5085215;27;62077;-76
2022/11/06 11:07:46;;;;;;;;;6.00;6.00;;;;;;;;5101798;27;62165;-76
2022/11/06 11:10:25;;;;;;;;;10.00;6.25;;;;;;;;5084963;27;61803;-79
2022/11/06 11:12:52;;;;;;;;;9.50;6.50;;;;;;;;5103364;27;61883;-79
2022/11/06 11:15:21;;;;;;;;;5.50;5.50;;;;;;;;5084672;27;62149;-80
2022/11/06 11:18:05;;;;;;;;;12.75;9.75;;;;;;;;5102398;27;62875;-80
2022/11/06 11:20:32;;;;;;;;;5.25;5.25;;;;;;;;5102298;27;62129;-79
2022/11/06 11:23:09;;;;;;;;;10.25;8.75;;;;;;;;5102803;27;62275;-78
2022/11/06 11:25:34;;;;;;;;;8.00;4.75;;;;;;;;5103316;27;62036;-83
2022/11/06 11:28:01;;;;;;;;;5.00;4.00;;;;;;;;5102593;27;61772;-79
2022/11/06 11:30:28;;;;;;;;;4.50;4.00;;;;;;;;5101853;27;61891;-79
2022/11/06 11:32:54;;;;;;;;;9.25;6.75;;;;;;;;5101545;27;61810;-79
2022/11/06 11:35:23;;;;;;;;;6.00;4.75;;;;;;;;5083274;27;61812;-77
2022/11/06 11:37:48;;;;;;;;;10.50;5.00;;;;;;;;5099838;27;61838;-81
2022/11/06 11:40:21;;;;;;;;;3.00;3.00;;;;;;;;5101648;27;62054;-79
2022/11/06 11:42:46;;;;;;;;;6.00;6.00;;;;;;;;5083244;27;61891;-79
2022/11/06 11:45:14;;;;;;;;;9.25;3.00;;;;;;;;5101356;27;61743;-80
2022/11/06 11:47:41;;;;;;;;;6.75;6.75;;;;;;;;5083640;27;63726;-80
2022/11/06 11:50:16;;;;;;;;;11.75;5.00;;;;;;;;5085975;27;62129;-80
2022/11/06 11:52:45;;;;;;;;;9.25;8.00;;;;;;;;5106011;27;62152;-80
2022/11/06 11:55:19;;;;;;;;;4.00;4.00;;;;;;;;5088153;27;61898;-81
2022/11/06 11:57:47;;;;;;;;;8.75;7.50;;;;;;;;5087442;27;64996;-79
2022/11/06 12:00:20;;;;;;;;;8.00;6.00;;;;;;;;5106055;27;61780;-79
2022/11/06 12:02:48;;;;;;;;;4.00;2.25;;;;;;;;5106454;27;61923;-80
2022/11/06 12:05:15;;;;;;;;;4.50;3.25;;;;;;;;5106341;27;61721;-77
2022/11/06 12:07:43;;;;;;;;;11.75;6.00;;;;;;;;5086805;27;61905;-79
2022/11/06 12:10:32;;;;;;;;;7.50;7.25;;;;;;;;5087572;27;62194;-76
2022/11/06 12:12:58;;;;;;;;;6.00;4.25;;;;;;;;5095301;27;62081;-77
2022/11/06 12:15:26;;;;;;;;;11.75;9.50;;;;;;;;5106266;27;62052;-80
2022/11/06 12:18:05;;;;;;;;;10.50;8.00;;;;;;;;5086997;27;63429;-80
2022/11/06 12:20:48;;;;;;;;;8.75;8.75;;;;;;;;5104631;27;62036;-78
2022/11/06 12:23:18;;;;;;;;;7.25;4.00;;;;;;;;5107624;27;62000;-80
2022/11/06 12:25:55;;;;;;;;;14.25;6.75;;;;;;;;5111758;27;61991;-82
2022/11/06 12:28:22;;;;;;;;;8.00;7.00;;;;;;;;5114978;27;61767;-77
2022/11/06 12:30:51;;;;;;;;;4.00;4.00;;;;;;;;5117877;27;62023;-77
2022/11/06 12:33:19;;;;;;;;;8.50;7.25;;;;;;;;5093527;27;61958;-79
2022/11/06 12:35:51;;;;;;;;;6.00;6.00;;;;;;;;5090415;27;61869;-81
2022/11/06 12:38:35;;;;;;;;;9.25;9.00;;;;;;;;5095395;27;64861;-79
2022/11/06 12:41:15;;;;;;;;;11.00;8.00;;;;;;;;5112135;27;61796;-79
2022/11/06 12:43:40;;;;;;;;;14.75;8.00;;;;;;;;5110819;27;61897;-79
2022/11/06 12:46:14;;;;;;;;;11.00;9.00;;;;;;;;5094783;27;62198;-79
2022/11/06 12:48:39;;;;;;;;;16.75;14.00;;;;;;;;5114069;27;63055;-78
2022/11/06 12:51:11;;;;;;;;;6.00;4.75;;;;;;;;5111547;27;61696;-79
2022/11/06 12:53:43;;;;;;;;;4.75;4.75;;;;;;;;5114469;27;62000;-78
2022/11/06 12:56:13;;;;;;;;;9.00;9.00;;;;;;;;5114478;27;61864;-78
2022/11/06 12:58:57;;;;;;;;;6.75;6.00;;;;;;;;5109055;27;61835;-78
2022/11/06 13:01:41;;;;;;;;;6.75;5.00;;;;;;;;5091978;27;62128;-78
2022/11/06 13:04:06;;;;;;;;;13.00;12.25;;;;;;;;5107776;27;61844;-78
2022/11/06 13:06:39;;;;;;;;;10.25;7.25;;;;;;;;5078133;27;62337;-78
2022/11/06 13:09:13;;;;;;;;;7.00;6.25;;;;;;;;5076427;27;61815;-78
2022/11/06 13:12:03;;;;;;;;;6.50;4.00;;;;;;;;5093294;27;62041;-78
2022/11/06 13:14:32;;;;;;;;;2.75;2.75;;;;;;;;5091084;27;61882;-78
2022/11/06 13:17:05;;;;;;;;;7.50;4.50;;;;;;;;5072732;27;61858;-78
2022/11/06 13:19:54;;;;;;;;;9.00;6.75;;;;;;;;5090352;27;63176;-78
2022/11/06 13:22:28;;;;;;;;;10.00;5.00;;;;;;;;5083848;27;62252;-80
2022/11/06 13:24:56;;;;;;;;;7.00;7.00;;;;;;;;5095111;27;61949;-78
2022/11/06 13:27:40;;;;;;;;;9.25;7.25;;;;;;;;5082639;27;61939;-78
2022/11/06 13:30:14;;;;;;;;;6.75;4.00;;;;;;;;5083952;27;63266;-78
2022/11/06 13:32:42;;;;;;;;;6.00;6.00;;;;;;;;5094360;27;62122;-76
2022/11/06 13:35:16;;;;;;;;;6.25;4.50;;;;;;;;5071785;27;61849;-78
2022/11/06 13:37:43;;;;;;;;;4.00;4.00;;;;;;;;5077963;27;61907;-78
2022/11/06 13:40:15;;;;;;;;;12.00;8.75;;;;;;;;5074474;27;63791;-78
2022/11/06 13:42:44;;;;;;;;;7.75;4.00;;;;;;;;5080383;27;62403;-80
2022/11/06 13:45:13;;;;;;;;;8.00;6.75;;;;;;;;5089647;27;61896;-78
2022/11/06 13:47:55;;;;;;;;;11.75;9.50;;;;;;;;5072062;27;62509;-76
2022/11/06 13:50:25;;;;;;;;;6.25;4.75;;;;;;;;5092227;27;63432;-76
2022/11/06 13:52:59;;;;;;;;;9.75;7.00;;;;;;;;5095683;27;61820;-77
2022/11/06 13:55:33;;;;;;;;;9.00;5.00;;;;;;;;5103947;27;61863;-76
2022/11/06 13:58:31;;;;;;;;;7.00;7.00;;;;;;;;5104228;27;61940;-77
2022/11/06 14:01:16;;;;;;;;;6.25;5.50;;;;;;;;5005165;28;61995;-77
2022/11/06 14:03:41;;;;;;;;;9.75;6.50;;;;;;;;4960116;28;61900;-77
2022/11/06 14:06:33;;;;;;;;;7.50;5.50;;;;;;;;4961402;28;61787;-81
2022/11/06 14:09:08;;;;;;;;;7.00;5.00;;;;;;;;4958343;28;61966;-80
2022/11/06 14:11:41;;;;;;;;;7.00;5.50;;;;;;;;4959670;28;62057;-80
2022/11/06 14:14:11;;;;;;;;;6.00;5.00;;;;;;;;4960954;28;61934;-77
2022/11/06 14:16:37;;;;;;;;;9.00;5.50;;;;;;;;4960797;28;61918;-77
2022/11/06 14:19:21;;;;;;;;;5.25;3.50;;;;;;;;4959356;28;61931;-83
2022/11/06 14:21:46;;;;;;;;;4.75;4.75;;;;;;;;4958550;28;62563;-80
2022/11/06 14:24:26;;;;;;;;;3.25;3.00;;;;;;;;4960740;28;61904;-80
2022/11/06 14:26:51;;;;;;;;;3.00;3.00;;;;;;;;4957977;28;61778;-82
2022/11/06 14:29:25;;;;;;;;;4.25;4.00;;;;;;;;4949170;28;62332;-79
2022/11/06 14:31:57;;;;;;;;;4.50;3.50;;;;;;;;4967868;28;62710;-84
2022/11/06 14:34:33;;;;;;;;;5.50;5.00;;;;;;;;4965345;28;62091;-80
2022/11/06 14:36:58;;;;;;;;;9.00;6.00;;;;;;;;5002641;28;61995;-81
2022/11/06 14:39:49;;;;;;;;;4.00;4.00;;;;;;;;5035015;28;61853;-80
2022/11/06 14:42:16;;;;;;;;;5.50;4.50;;;;;;;;5081149;28;62717;-80
2022/11/06 14:44:43;;;;;;;;;9.00;4.75;;;;;;;;5081958;27;61799;-79
2022/11/06 14:47:20;;;;;;;;;6.00;5.00;;;;;;;;5084675;27;62181;-79
2022/11/06 14:49:48;;;;;;;;;8.75;7.25;;;;;;;;5102537;27;62166;-78
2022/11/06 14:52:14;;;;;;;;;9.00;5.00;;;;;;;;5094330;27;62008;-77
2022/11/06 14:54:48;;;;;;;;;9.75;8.00;;;;;;;;5079255;27;61815;-78
2022/11/06 14:57:15;;;;;;;;;4.50;4.00;;;;;;;;5084074;27;62078;-83
2022/11/06 14:59:41;;;;;;;;;6.00;3.75;;;;;;;;5102059;27;61677;-84
2022/11/06 15:02:09;;;;;;;;;4.75;4.75;;;;;;;;5084017;27;64455;-85
2022/11/06 15:04:35;;;;;;;;;11.00;6.50;;;;;;;;5084838;27;61916;-85
2022/11/06 15:07:08;;;;;;;;;5.50;4.00;;;;;;;;5084141;27;61851;-86